sensor_id;sensor_type;location;lat;lon;timestamp;P1;durP1;ratioP1;P2;durP2;ratioP2
2159;SDS011;1086;51.610;6.928;2022-08-19T00:00:11;6.90;;;4.20;;
2159;SDS011;1086;51.610;6.928;2022-08-19T00:02:38;9.38;;;5.13;;
2159;SDS011;1086;51.610;6.928;2022-08-19T00:05:04;7.43;;;4.55;;
2159;SDS011;1086;51.610;6.928;2022-08-19T00:07:30;6.03;;;4.43;;
2159;SDS011;1086;51.610;6.928;2022-08-19T00:09:55;5.97;;;4.23;;
2159;SDS011;1086;51.610;6.928;2022-08-19T00:12:21;5.68;;;4.25;;
2159;SDS011;1086;51.610;6.928;2022-08-19T00:14:46;6.80;;;5.03;;
2159;SDS011;1086;51.610;6.928;2022-08-19T00:17:11;6.65;;;5.03;;
2159;SDS011;1086;51.610;6.928;2022-08-19T00:19:37;10.75;;;4.80;;
2159;SDS011;1086;51.610;6.928;2022-08-19T00:22:03;7.88;;;4.85;;
2159;SDS011;1086;51.610;6.928;2022-08-19T00:24:30;7.05;;;4.63;;
2159;SDS011;1086;51.610;6.928;2022-08-19T00:26:55;6.90;;;4.33;;
2159;SDS011;1086;51.610;6.928;2022-08-19T00:29:22;5.63;;;4.10;;
2159;SDS011;1086;51.610;6.928;2022-08-19T00:31:48;5.65;;;4.32;;
2159;SDS011;1086;51.610;6.928;2022-08-19T00:34:15;6.13;;;4.47;;
2159;SDS011;1086;51.610;6.928;2022-08-19T00:36:41;7.55;;;5.10;;
2159;SDS011;1086;51.610;6.928;2022-08-19T00:39:07;7.57;;;4.50;;
2159;SDS011;1086;51.610;6.928;2022-08-19T00:41:32;9.30;;;4.75;;
2159;SDS011;1086;51.610;6.928;2022-08-19T00:46:26;7.32;;;4.22;;
2159;SDS011;1086;51.610;6.928;2022-08-19T00:48:51;7.30;;;4.70;;
2159;SDS011;1086;51.610;6.928;2022-08-19T00:51:16;7.27;;;5.00;;
2159;SDS011;1086;51.610;6.928;2022-08-19T00:53:42;7.40;;;4.20;;
2159;SDS011;1086;51.610;6.928;2022-08-19T00:56:08;6.57;;;4.55;;
2159;SDS011;1086;51.610;6.928;2022-08-19T00:58:34;8.43;;;5.03;;
2159;SDS011;1086;51.610;6.928;2022-08-19T01:01:00;9.27;;;5.95;;
2159;SDS011;1086;51.610;6.928;2022-08-19T01:03:25;10.50;;;5.70;;
2159;SDS011;1086;51.610;6.928;2022-08-19T01:05:51;7.68;;;4.90;;
2159;SDS011;1086;51.610;6.928;2022-08-19T01:08:17;9.50;;;5.47;;
2159;SDS011;1086;51.610;6.928;2022-08-19T01:10:44;7.35;;;5.25;;
2159;SDS011;1086;51.610;6.928;2022-08-19T01:13:10;8.77;;;5.70;;
2159;SDS011;1086;51.610;6.928;2022-08-19T01:15:40;11.00;;;6.45;;
2159;SDS011;1086;51.610;6.928;2022-08-19T01:18:08;6.70;;;4.82;;
2159;SDS011;1086;51.610;6.928;2022-08-19T01:20:34;8.25;;;5.95;;
2159;SDS011;1086;51.610;6.928;2022-08-19T01:23:00;8.32;;;5.28;;
2159;SDS011;1086;51.610;6.928;2022-08-19T01:25:38;9.00;;;5.65;;
2159;SDS011;1086;51.610;6.928;2022-08-19T01:28:04;7.65;;;5.55;;
2159;SDS011;1086;51.610;6.928;2022-08-19T01:30:30;8.95;;;5.75;;
2159;SDS011;1086;51.610;6.928;2022-08-19T01:32:56;10.32;;;5.40;;
2159;SDS011;1086;51.610;6.928;2022-08-19T01:35:22;9.70;;;6.07;;
2159;SDS011;1086;51.610;6.928;2022-08-19T01:38:10;10.90;;;6.55;;
2159;SDS011;1086;51.610;6.928;2022-08-19T01:40:36;8.82;;;6.20;;
2159;SDS011;1086;51.610;6.928;2022-08-19T01:43:03;10.05;;;6.25;;
2159;SDS011;1086;51.610;6.928;2022-08-19T01:45:29;11.40;;;6.85;;
2159;SDS011;1086;51.610;6.928;2022-08-19T01:47:55;8.63;;;5.93;;
2159;SDS011;1086;51.610;6.928;2022-08-19T01:50:21;7.80;;;5.63;;
2159;SDS011;1086;51.610;6.928;2022-08-19T01:52:46;8.20;;;5.53;;
2159;SDS011;1086;51.610;6.928;2022-08-19T01:55:13;8.57;;;5.33;;
2159;SDS011;1086;51.610;6.928;2022-08-19T01:57:39;8.65;;;5.70;;
2159;SDS011;1086;51.610;6.928;2022-08-19T02:00:07;6.78;;;5.28;;
2159;SDS011;1086;51.610;6.928;2022-08-19T02:02:33;9.10;;;5.53;;
2159;SDS011;1086;51.610;6.928;2022-08-19T02:04:58;8.38;;;5.63;;
2159;SDS011;1086;51.610;6.928;2022-08-19T02:07:24;7.72;;;5.72;;
2159;SDS011;1086;51.610;6.928;2022-08-19T02:09:49;8.23;;;5.93;;
2159;SDS011;1086;51.610;6.928;2022-08-19T02:12:14;8.60;;;5.47;;
2159;SDS011;1086;51.610;6.928;2022-08-19T02:14:41;9.75;;;6.07;;
2159;SDS011;1086;51.610;6.928;2022-08-19T02:17:06;10.98;;;6.63;;
2159;SDS011;1086;51.610;6.928;2022-08-19T02:19:31;8.75;;;6.15;;
2159;SDS011;1086;51.610;6.928;2022-08-19T02:22:00;11.50;;;6.45;;
2159;SDS011;1086;51.610;6.928;2022-08-19T02:24:25;12.77;;;6.20;;
2159;SDS011;1086;51.610;6.928;2022-08-19T02:26:51;7.68;;;5.70;;
2159;SDS011;1086;51.610;6.928;2022-08-19T02:29:16;8.47;;;5.70;;
2159;SDS011;1086;51.610;6.928;2022-08-19T02:31:41;8.27;;;5.70;;
2159;SDS011;1086;51.610;6.928;2022-08-19T02:34:06;8.77;;;6.13;;
2159;SDS011;1086;51.610;6.928;2022-08-19T02:36:32;10.55;;;5.85;;
2159;SDS011;1086;51.610;6.928;2022-08-19T02:38:57;8.80;;;6.10;;
2159;SDS011;1086;51.610;6.928;2022-08-19T02:41:24;9.18;;;5.95;;
2159;SDS011;1086;51.610;6.928;2022-08-19T02:43:50;11.32;;;6.38;;
2159;SDS011;1086;51.610;6.928;2022-08-19T02:46:17;14.60;;;6.60;;
2159;SDS011;1086;51.610;6.928;2022-08-19T02:48:43;10.25;;;7.15;;
2159;SDS011;1086;51.610;6.928;2022-08-19T02:51:08;8.80;;;6.07;;
2159;SDS011;1086;51.610;6.928;2022-08-19T02:53:33;9.70;;;6.78;;
2159;SDS011;1086;51.610;6.928;2022-08-19T02:55:59;10.75;;;6.88;;
2159;SDS011;1086;51.610;6.928;2022-08-19T02:58:24;13.57;;;7.05;;
2159;SDS011;1086;51.610;6.928;2022-08-19T03:00:53;10.65;;;7.40;;
2159;SDS011;1086;51.610;6.928;2022-08-19T03:03:18;11.18;;;6.78;;
2159;SDS011;1086;51.610;6.928;2022-08-19T03:05:44;11.32;;;6.90;;
2159;SDS011;1086;51.610;6.928;2022-08-19T03:08:10;9.40;;;6.35;;
2159;SDS011;1086;51.610;6.928;2022-08-19T03:10:44;10.50;;;6.68;;
2159;SDS011;1086;51.610;6.928;2022-08-19T03:13:10;10.55;;;7.30;;
2159;SDS011;1086;51.610;6.928;2022-08-19T03:15:38;11.90;;;7.18;;
2159;SDS011;1086;51.610;6.928;2022-08-19T03:18:04;11.15;;;7.07;;
2159;SDS011;1086;51.610;6.928;2022-08-19T03:20:29;10.67;;;7.60;;
2159;SDS011;1086;51.610;6.928;2022-08-19T03:22:54;11.13;;;7.20;;
2159;SDS011;1086;51.610;6.928;2022-08-19T03:25:19;11.43;;;7.63;;
2159;SDS011;1086;51.610;6.928;2022-08-19T03:27:44;12.47;;;7.43;;
2159;SDS011;1086;51.610;6.928;2022-08-19T03:30:13;11.07;;;7.13;;
2159;SDS011;1086;51.610;6.928;2022-08-19T03:32:39;12.47;;;7.53;;
2159;SDS011;1086;51.610;6.928;2022-08-19T03:35:04;9.97;;;6.70;;
2159;SDS011;1086;51.610;6.928;2022-08-19T03:37:29;9.95;;;7.10;;
2159;SDS011;1086;51.610;6.928;2022-08-19T03:39:55;8.97;;;6.20;;
2159;SDS011;1086;51.610;6.928;2022-08-19T03:42:20;11.60;;;7.00;;
2159;SDS011;1086;51.610;6.928;2022-08-19T03:44:45;12.23;;;7.05;;
2159;SDS011;1086;51.610;6.928;2022-08-19T03:47:11;10.20;;;7.03;;
2159;SDS011;1086;51.610;6.928;2022-08-19T03:49:40;13.23;;;7.53;;
2159;SDS011;1086;51.610;6.928;2022-08-19T03:52:06;12.23;;;8.10;;
2159;SDS011;1086;51.610;6.928;2022-08-19T03:54:32;13.77;;;6.93;;
2159;SDS011;1086;51.610;6.928;2022-08-19T03:56:57;13.18;;;7.50;;
2159;SDS011;1086;51.610;6.928;2022-08-19T03:59:28;13.98;;;7.13;;
2159;SDS011;1086;51.610;6.928;2022-08-19T04:01:54;11.80;;;6.97;;
2159;SDS011;1086;51.610;6.928;2022-08-19T04:04:20;11.50;;;6.65;;
2159;SDS011;1086;51.610;6.928;2022-08-19T04:06:46;9.48;;;6.68;;
2159;SDS011;1086;51.610;6.928;2022-08-19T04:09:12;10.15;;;6.65;;
2159;SDS011;1086;51.610;6.928;2022-08-19T04:11:38;15.35;;;7.32;;
2159;SDS011;1086;51.610;6.928;2022-08-19T04:14:06;11.23;;;7.25;;
2159;SDS011;1086;51.610;6.928;2022-08-19T04:16:32;11.98;;;7.40;;
2159;SDS011;1086;51.610;6.928;2022-08-19T04:18:59;12.20;;;7.10;;
2159;SDS011;1086;51.610;6.928;2022-08-19T04:21:26;12.23;;;7.25;;
2159;SDS011;1086;51.610;6.928;2022-08-19T04:23:51;9.65;;;6.30;;
2159;SDS011;1086;51.610;6.928;2022-08-19T04:26:19;13.15;;;7.88;;
2159;SDS011;1086;51.610;6.928;2022-08-19T04:28:45;12.23;;;7.00;;
2159;SDS011;1086;51.610;6.928;2022-08-19T04:31:14;10.90;;;7.38;;
2159;SDS011;1086;51.610;6.928;2022-08-19T04:33:40;12.00;;;7.22;;
2159;SDS011;1086;51.610;6.928;2022-08-19T04:36:05;10.38;;;6.90;;
2159;SDS011;1086;51.610;6.928;2022-08-19T04:38:31;12.68;;;6.53;;
2159;SDS011;1086;51.610;6.928;2022-08-19T04:40:56;12.90;;;7.35;;
2159;SDS011;1086;51.610;6.928;2022-08-19T04:43:39;13.43;;;7.07;;
2159;SDS011;1086;51.610;6.928;2022-08-19T04:46:07;14.10;;;6.87;;
2159;SDS011;1086;51.610;6.928;2022-08-19T04:48:33;12.43;;;8.05;;
2159;SDS011;1086;51.610;6.928;2022-08-19T04:50:58;13.20;;;8.77;;
2159;SDS011;1086;51.610;6.928;2022-08-19T04:53:24;14.10;;;8.52;;
2159;SDS011;1086;51.610;6.928;2022-08-19T04:55:50;16.60;;;7.65;;
2159;SDS011;1086;51.610;6.928;2022-08-19T04:58:16;14.07;;;8.38;;
2159;SDS011;1086;51.610;6.928;2022-08-19T05:00:42;13.02;;;8.25;;
2159;SDS011;1086;51.610;6.928;2022-08-19T05:03:08;13.10;;;8.13;;
2159;SDS011;1086;51.610;6.928;2022-08-19T05:05:33;13.60;;;8.93;;
2159;SDS011;1086;51.610;6.928;2022-08-19T05:07:59;15.13;;;7.68;;
2159;SDS011;1086;51.610;6.928;2022-08-19T05:10:24;15.68;;;9.13;;
2159;SDS011;1086;51.610;6.928;2022-08-19T05:12:49;13.20;;;8.13;;
2159;SDS011;1086;51.610;6.928;2022-08-19T05:15:14;12.07;;;7.70;;
2159;SDS011;1086;51.610;6.928;2022-08-19T05:17:40;14.63;;;9.05;;
2159;SDS011;1086;51.610;6.928;2022-08-19T05:20:25;14.27;;;8.60;;
2159;SDS011;1086;51.610;6.928;2022-08-19T05:23:10;11.95;;;8.35;;
2159;SDS011;1086;51.610;6.928;2022-08-19T05:25:38;15.85;;;8.18;;
2159;SDS011;1086;51.610;6.928;2022-08-19T05:28:04;14.88;;;9.15;;
2159;SDS011;1086;51.610;6.928;2022-08-19T05:30:29;14.20;;;8.17;;
2159;SDS011;1086;51.610;6.928;2022-08-19T05:32:54;18.73;;;8.88;;
2159;SDS011;1086;51.610;6.928;2022-08-19T05:35:20;12.82;;;7.95;;
2159;SDS011;1086;51.610;6.928;2022-08-19T05:37:48;16.58;;;9.43;;
2159;SDS011;1086;51.610;6.928;2022-08-19T05:40:13;13.23;;;8.97;;
2159;SDS011;1086;51.610;6.928;2022-08-19T05:42:38;13.60;;;8.88;;
2159;SDS011;1086;51.610;6.928;2022-08-19T05:45:04;15.77;;;8.93;;
2159;SDS011;1086;51.610;6.928;2022-08-19T05:47:29;14.80;;;8.40;;
2159;SDS011;1086;51.610;6.928;2022-08-19T05:49:54;13.40;;;8.47;;
2159;SDS011;1086;51.610;6.928;2022-08-19T05:52:20;15.83;;;7.90;;
2159;SDS011;1086;51.610;6.928;2022-08-19T05:54:45;13.93;;;8.30;;
2159;SDS011;1086;51.610;6.928;2022-08-19T05:57:12;14.27;;;9.18;;
2159;SDS011;1086;51.610;6.928;2022-08-19T05:59:38;17.15;;;9.75;;
2159;SDS011;1086;51.610;6.928;2022-08-19T06:02:03;16.93;;;8.77;;
2159;SDS011;1086;51.610;6.928;2022-08-19T06:04:29;20.17;;;9.65;;
2159;SDS011;1086;51.610;6.928;2022-08-19T06:06:54;17.83;;;8.77;;
2159;SDS011;1086;51.610;6.928;2022-08-19T06:09:21;19.13;;;9.73;;
2159;SDS011;1086;51.610;6.928;2022-08-19T06:11:48;19.30;;;10.27;;
2159;SDS011;1086;51.610;6.928;2022-08-19T06:14:17;19.48;;;10.40;;
2159;SDS011;1086;51.610;6.928;2022-08-19T06:16:43;20.48;;;11.52;;
2159;SDS011;1086;51.610;6.928;2022-08-19T06:19:11;15.63;;;9.13;;
2159;SDS011;1086;51.610;6.928;2022-08-19T06:21:37;19.45;;;9.20;;
2159;SDS011;1086;51.610;6.928;2022-08-19T06:24:06;17.40;;;9.32;;
2159;SDS011;1086;51.610;6.928;2022-08-19T06:26:33;17.65;;;9.60;;
2159;SDS011;1086;51.610;6.928;2022-08-19T06:28:59;18.10;;;9.65;;
2159;SDS011;1086;51.610;6.928;2022-08-19T06:31:25;15.03;;;9.90;;
2159;SDS011;1086;51.610;6.928;2022-08-19T06:33:50;16.15;;;9.70;;
2159;SDS011;1086;51.610;6.928;2022-08-19T06:36:23;17.88;;;10.02;;
2159;SDS011;1086;51.610;6.928;2022-08-19T06:38:52;19.85;;;9.85;;
2159;SDS011;1086;51.610;6.928;2022-08-19T06:41:18;16.45;;;9.77;;
2159;SDS011;1086;51.610;6.928;2022-08-19T06:43:53;15.85;;;9.98;;
2159;SDS011;1086;51.610;6.928;2022-08-19T06:46:22;20.63;;;9.90;;
2159;SDS011;1086;51.610;6.928;2022-08-19T06:48:47;15.85;;;9.48;;
2159;SDS011;1086;51.610;6.928;2022-08-19T06:51:16;18.80;;;9.48;;
2159;SDS011;1086;51.610;6.928;2022-08-19T06:53:44;16.58;;;9.15;;
2159;SDS011;1086;51.610;6.928;2022-08-19T06:56:11;16.83;;;9.32;;
2159;SDS011;1086;51.610;6.928;2022-08-19T06:58:37;15.52;;;8.88;;
2159;SDS011;1086;51.610;6.928;2022-08-19T07:01:03;19.02;;;10.63;;
2159;SDS011;1086;51.610;6.928;2022-08-19T07:03:30;19.48;;;11.63;;
2159;SDS011;1086;51.610;6.928;2022-08-19T07:05:56;17.50;;;9.50;;
2159;SDS011;1086;51.610;6.928;2022-08-19T07:08:21;11.63;;;7.32;;
2159;SDS011;1086;51.610;6.928;2022-08-19T07:10:46;16.10;;;9.50;;
2159;SDS011;1086;51.610;6.928;2022-08-19T07:13:12;15.25;;;8.63;;
2159;SDS011;1086;51.610;6.928;2022-08-19T07:15:38;15.63;;;8.93;;
2159;SDS011;1086;51.610;6.928;2022-08-19T07:18:03;14.17;;;8.03;;
2159;SDS011;1086;51.610;6.928;2022-08-19T07:20:29;14.75;;;9.05;;
2159;SDS011;1086;51.610;6.928;2022-08-19T07:22:55;14.70;;;9.70;;
2159;SDS011;1086;51.610;6.928;2022-08-19T07:25:20;17.33;;;8.83;;
2159;SDS011;1086;51.610;6.928;2022-08-19T07:27:48;12.95;;;8.43;;
2159;SDS011;1086;51.610;6.928;2022-08-19T07:30:13;15.07;;;9.98;;
2159;SDS011;1086;51.610;6.928;2022-08-19T07:32:39;17.67;;;8.37;;
2159;SDS011;1086;51.610;6.928;2022-08-19T07:35:05;18.27;;;9.88;;
2159;SDS011;1086;51.610;6.928;2022-08-19T07:37:31;15.27;;;8.82;;
2159;SDS011;1086;51.610;6.928;2022-08-19T07:39:56;15.10;;;9.63;;
2159;SDS011;1086;51.610;6.928;2022-08-19T07:42:21;15.70;;;10.27;;
2159;SDS011;1086;51.610;6.928;2022-08-19T07:44:47;13.70;;;7.97;;
2159;SDS011;1086;51.610;6.928;2022-08-19T07:47:12;15.95;;;9.20;;
2159;SDS011;1086;51.610;6.928;2022-08-19T07:49:40;14.88;;;9.32;;
2159;SDS011;1086;51.610;6.928;2022-08-19T07:52:06;14.07;;;8.93;;
2159;SDS011;1086;51.610;6.928;2022-08-19T07:54:33;15.85;;;9.02;;
2159;SDS011;1086;51.610;6.928;2022-08-19T07:57:01;10.63;;;7.10;;
2159;SDS011;1086;51.610;6.928;2022-08-19T07:59:27;17.15;;;9.35;;
2159;SDS011;1086;51.610;6.928;2022-08-19T08:01:54;14.85;;;9.85;;
2159;SDS011;1086;51.610;6.928;2022-08-19T08:04:19;12.35;;;7.43;;
2159;SDS011;1086;51.610;6.928;2022-08-19T08:07:04;17.20;;;8.55;;
2159;SDS011;1086;51.610;6.928;2022-08-19T08:09:48;14.85;;;9.70;;
2159;SDS011;1086;51.610;6.928;2022-08-19T08:12:17;16.97;;;9.80;;
2159;SDS011;1086;51.610;6.928;2022-08-19T08:17:09;14.13;;;8.55;;
2159;SDS011;1086;51.610;6.928;2022-08-19T08:19:34;19.90;;;12.00;;
2159;SDS011;1086;51.610;6.928;2022-08-19T08:22:00;17.17;;;9.98;;
2159;SDS011;1086;51.610;6.928;2022-08-19T08:24:26;15.27;;;9.15;;
2159;SDS011;1086;51.610;6.928;2022-08-19T08:26:52;16.60;;;10.20;;
2159;SDS011;1086;51.610;6.928;2022-08-19T08:29:17;14.93;;;8.17;;
2159;SDS011;1086;51.610;6.928;2022-08-19T08:31:47;13.65;;;7.88;;
2159;SDS011;1086;51.610;6.928;2022-08-19T08:34:13;15.70;;;9.45;;
2159;SDS011;1086;51.610;6.928;2022-08-19T08:36:39;15.55;;;10.45;;
2159;SDS011;1086;51.610;6.928;2022-08-19T08:39:09;15.00;;;9.75;;
2159;SDS011;1086;51.610;6.928;2022-08-19T08:44:32;18.83;;;10.93;;
2159;SDS011;1086;51.610;6.928;2022-08-19T08:47:09;16.42;;;9.18;;
2159;SDS011;1086;51.610;6.928;2022-08-19T08:52:06;17.73;;;8.98;;
2159;SDS011;1086;51.610;6.928;2022-08-19T08:54:34;17.33;;;8.90;;
2159;SDS011;1086;51.610;6.928;2022-08-19T08:57:00;15.00;;;10.75;;
2159;SDS011;1086;51.610;6.928;2022-08-19T08:59:29;17.02;;;10.43;;
2159;SDS011;1086;51.610;6.928;2022-08-19T09:01:58;15.98;;;9.18;;
2159;SDS011;1086;51.610;6.928;2022-08-19T09:04:24;14.82;;;9.00;;
2159;SDS011;1086;51.610;6.928;2022-08-19T09:07:00;13.77;;;8.35;;
2159;SDS011;1086;51.610;6.928;2022-08-19T09:09:30;16.05;;;8.27;;
2159;SDS011;1086;51.610;6.928;2022-08-19T09:14:36;14.35;;;9.10;;
2159;SDS011;1086;51.610;6.928;2022-08-19T09:17:06;15.32;;;8.80;;
2159;SDS011;1086;51.610;6.928;2022-08-19T09:19:33;24.00;;;10.63;;
2159;SDS011;1086;51.610;6.928;2022-08-19T09:21:58;13.43;;;8.70;;
2159;SDS011;1086;51.610;6.928;2022-08-19T09:24:25;12.85;;;7.30;;
2159;SDS011;1086;51.610;6.928;2022-08-19T09:26:50;14.40;;;9.33;;
2159;SDS011;1086;51.610;6.928;2022-08-19T09:29:15;12.13;;;7.53;;
2159;SDS011;1086;51.610;6.928;2022-08-19T09:31:41;11.53;;;7.33;;
2159;SDS011;1086;51.610;6.928;2022-08-19T09:34:06;9.18;;;5.68;;
2159;SDS011;1086;51.610;6.928;2022-08-19T09:36:31;7.10;;;5.20;;
2159;SDS011;1086;51.610;6.928;2022-08-19T09:39:01;10.32;;;6.63;;
2159;SDS011;1086;51.610;6.928;2022-08-19T09:41:26;9.02;;;6.20;;
2159;SDS011;1086;51.610;6.928;2022-08-19T09:43:52;14.68;;;7.90;;
2159;SDS011;1086;51.610;6.928;2022-08-19T09:46:19;10.93;;;7.45;;
2159;SDS011;1086;51.610;6.928;2022-08-19T09:48:46;11.98;;;7.25;;
2159;SDS011;1086;51.610;6.928;2022-08-19T09:51:13;9.57;;;6.65;;
2159;SDS011;1086;51.610;6.928;2022-08-19T09:53:42;14.27;;;9.07;;
2159;SDS011;1086;51.610;6.928;2022-08-19T09:56:08;13.43;;;8.57;;
2159;SDS011;1086;51.610;6.928;2022-08-19T09:58:33;15.95;;;9.15;;
2159;SDS011;1086;51.610;6.928;2022-08-19T10:00:59;16.00;;;9.73;;
2159;SDS011;1086;51.610;6.928;2022-08-19T10:03:25;18.63;;;9.48;;
2159;SDS011;1086;51.610;6.928;2022-08-19T10:05:52;14.25;;;8.75;;
2159;SDS011;1086;51.610;6.928;2022-08-19T10:08:21;13.75;;;9.70;;
2159;SDS011;1086;51.610;6.928;2022-08-19T10:10:47;14.77;;;9.13;;
2159;SDS011;1086;51.610;6.928;2022-08-19T10:13:14;17.73;;;10.20;;
2159;SDS011;1086;51.610;6.928;2022-08-19T10:15:40;17.50;;;10.60;;
2159;SDS011;1086;51.610;6.928;2022-08-19T10:18:05;20.75;;;11.25;;
2159;SDS011;1086;51.610;6.928;2022-08-19T10:20:31;17.42;;;10.65;;
2159;SDS011;1086;51.610;6.928;2022-08-19T10:22:56;21.63;;;11.77;;
2159;SDS011;1086;51.610;6.928;2022-08-19T10:25:24;21.95;;;11.90;;
2159;SDS011;1086;51.610;6.928;2022-08-19T10:27:49;22.03;;;12.30;;
2159;SDS011;1086;51.610;6.928;2022-08-19T10:30:14;19.63;;;11.73;;
2159;SDS011;1086;51.610;6.928;2022-08-19T10:32:39;19.60;;;11.40;;
2159;SDS011;1086;51.610;6.928;2022-08-19T10:35:05;17.23;;;10.37;;
2159;SDS011;1086;51.610;6.928;2022-08-19T10:37:34;21.50;;;12.30;;
2159;SDS011;1086;51.610;6.928;2022-08-19T10:39:59;23.55;;;11.90;;
2159;SDS011;1086;51.610;6.928;2022-08-19T10:42:24;19.92;;;11.15;;
2159;SDS011;1086;51.610;6.928;2022-08-19T10:44:49;21.57;;;11.97;;
2159;SDS011;1086;51.610;6.928;2022-08-19T10:47:18;19.43;;;11.50;;
2159;SDS011;1086;51.610;6.928;2022-08-19T10:49:43;21.50;;;11.63;;
2159;SDS011;1086;51.610;6.928;2022-08-19T10:52:27;16.67;;;10.00;;
2159;SDS011;1086;51.610;6.928;2022-08-19T10:55:02;18.45;;;11.65;;
2159;SDS011;1086;51.610;6.928;2022-08-19T10:57:46;18.35;;;11.25;;
2159;SDS011;1086;51.610;6.928;2022-08-19T11:00:12;22.65;;;13.32;;
2159;SDS011;1086;51.610;6.928;2022-08-19T11:02:38;21.52;;;11.80;;
2159;SDS011;1086;51.610;6.928;2022-08-19T11:05:04;18.70;;;11.38;;
2159;SDS011;1086;51.610;6.928;2022-08-19T11:07:31;19.10;;;11.75;;
2159;SDS011;1086;51.610;6.928;2022-08-19T11:09:57;18.70;;;10.75;;
2159;SDS011;1086;51.610;6.928;2022-08-19T11:12:22;19.27;;;10.50;;
2159;SDS011;1086;51.610;6.928;2022-08-19T11:14:48;18.35;;;11.15;;
2159;SDS011;1086;51.610;6.928;2022-08-19T11:17:14;19.77;;;10.85;;
2159;SDS011;1086;51.610;6.928;2022-08-19T11:19:40;19.30;;;10.32;;
2159;SDS011;1086;51.610;6.928;2022-08-19T11:22:07;15.82;;;9.32;;
2159;SDS011;1086;51.610;6.928;2022-08-19T11:24:34;17.58;;;9.98;;
2159;SDS011;1086;51.610;6.928;2022-08-19T11:27:01;20.05;;;11.88;;
2159;SDS011;1086;51.610;6.928;2022-08-19T11:29:27;19.67;;;11.00;;
2159;SDS011;1086;51.610;6.928;2022-08-19T11:31:54;13.73;;;8.52;;
2159;SDS011;1086;51.610;6.928;2022-08-19T11:34:21;11.50;;;8.07;;
2159;SDS011;1086;51.610;6.928;2022-08-19T11:36:47;13.85;;;8.95;;
2159;SDS011;1086;51.610;6.928;2022-08-19T11:39:14;18.77;;;10.05;;
2159;SDS011;1086;51.610;6.928;2022-08-19T11:41:39;16.60;;;10.77;;
2159;SDS011;1086;51.610;6.928;2022-08-19T11:44:05;17.37;;;11.60;;
2159;SDS011;1086;51.610;6.928;2022-08-19T11:46:33;20.25;;;12.07;;
2159;SDS011;1086;51.610;6.928;2022-08-19T11:48:58;18.73;;;11.30;;
2159;SDS011;1086;51.610;6.928;2022-08-19T11:51:25;16.77;;;10.88;;
2159;SDS011;1086;51.610;6.928;2022-08-19T11:53:52;17.75;;;12.27;;
2159;SDS011;1086;51.610;6.928;2022-08-19T11:56:18;16.30;;;11.98;;
2159;SDS011;1086;51.610;6.928;2022-08-19T11:58:43;18.25;;;10.88;;
2159;SDS011;1086;51.610;6.928;2022-08-19T12:01:14;16.88;;;11.18;;
2159;SDS011;1086;51.610;6.928;2022-08-19T12:03:42;13.75;;;8.90;;
2159;SDS011;1086;51.610;6.928;2022-08-19T12:06:09;12.45;;;8.60;;
2159;SDS011;1086;51.610;6.928;2022-08-19T12:08:35;10.57;;;8.35;;
2159;SDS011;1086;51.610;6.928;2022-08-19T12:11:00;14.05;;;8.48;;
2159;SDS011;1086;51.610;6.928;2022-08-19T12:13:29;12.40;;;8.60;;
2159;SDS011;1086;51.610;6.928;2022-08-19T12:15:55;9.57;;;6.85;;
2159;SDS011;1086;51.610;6.928;2022-08-19T12:18:20;11.73;;;8.30;;
2159;SDS011;1086;51.610;6.928;2022-08-19T12:20:45;10.87;;;7.83;;
2159;SDS011;1086;51.610;6.928;2022-08-19T12:23:12;17.30;;;9.00;;
2159;SDS011;1086;51.610;6.928;2022-08-19T12:25:42;11.95;;;8.20;;
2159;SDS011;1086;51.610;6.928;2022-08-19T12:28:15;10.40;;;7.50;;
2159;SDS011;1086;51.610;6.928;2022-08-19T12:30:41;11.52;;;6.55;;
2159;SDS011;1086;51.610;6.928;2022-08-19T12:33:06;11.02;;;6.30;;
2159;SDS011;1086;51.610;6.928;2022-08-19T12:35:32;8.85;;;5.50;;
2159;SDS011;1086;51.610;6.928;2022-08-19T12:37:57;8.03;;;5.33;;
2159;SDS011;1086;51.610;6.928;2022-08-19T12:40:23;7.25;;;5.05;;
2159;SDS011;1086;51.610;6.928;2022-08-19T12:42:49;7.25;;;5.32;;
2159;SDS011;1086;51.610;6.928;2022-08-19T12:45:16;8.35;;;5.53;;
2159;SDS011;1086;51.610;6.928;2022-08-19T12:47:41;6.05;;;4.55;;
2159;SDS011;1086;51.610;6.928;2022-08-19T12:50:06;9.03;;;5.53;;
2159;SDS011;1086;51.610;6.928;2022-08-19T12:52:33;8.95;;;5.05;;
2159;SDS011;1086;51.610;6.928;2022-08-19T12:55:00;10.27;;;5.50;;
2159;SDS011;1086;51.610;6.928;2022-08-19T12:57:26;6.80;;;4.33;;
2159;SDS011;1086;51.610;6.928;2022-08-19T12:59:52;6.57;;;4.10;;
2159;SDS011;1086;51.610;6.928;2022-08-19T13:02:18;6.00;;;3.95;;
2159;SDS011;1086;51.610;6.928;2022-08-19T13:04:43;6.20;;;4.38;;
2159;SDS011;1086;51.610;6.928;2022-08-19T13:07:09;6.33;;;4.53;;
2159;SDS011;1086;51.610;6.928;2022-08-19T13:09:34;9.77;;;4.32;;
2159;SDS011;1086;51.610;6.928;2022-08-19T13:11:59;8.00;;;4.85;;
2159;SDS011;1086;51.610;6.928;2022-08-19T13:14:28;5.88;;;4.05;;
2159;SDS011;1086;51.610;6.928;2022-08-19T13:16:56;5.60;;;3.90;;
2159;SDS011;1086;51.610;6.928;2022-08-19T13:19:22;7.50;;;3.65;;
2159;SDS011;1086;51.610;6.928;2022-08-19T13:21:51;5.38;;;3.67;;
2159;SDS011;1086;51.610;6.928;2022-08-19T13:24:16;4.80;;;3.58;;
2159;SDS011;1086;51.610;6.928;2022-08-19T13:26:42;5.95;;;3.63;;
2159;SDS011;1086;51.610;6.928;2022-08-19T13:29:07;5.60;;;3.55;;
2159;SDS011;1086;51.610;6.928;2022-08-19T13:31:51;5.20;;;3.97;;
2159;SDS011;1086;51.610;6.928;2022-08-19T13:34:35;5.75;;;4.00;;
2159;SDS011;1086;51.610;6.928;2022-08-19T13:37:02;5.97;;;3.67;;
2159;SDS011;1086;51.610;6.928;2022-08-19T13:39:28;4.82;;;3.72;;
2159;SDS011;1086;51.610;6.928;2022-08-19T13:41:54;4.60;;;3.38;;
2159;SDS011;1086;51.610;6.928;2022-08-19T13:44:19;7.65;;;3.83;;
2159;SDS011;1086;51.610;6.928;2022-08-19T13:46:45;5.75;;;3.78;;
2159;SDS011;1086;51.610;6.928;2022-08-19T13:49:11;5.95;;;4.07;;
2159;SDS011;1086;51.610;6.928;2022-08-19T13:51:38;7.65;;;4.35;;
2159;SDS011;1086;51.610;6.928;2022-08-19T13:54:05;7.68;;;4.10;;
2159;SDS011;1086;51.610;6.928;2022-08-19T13:56:30;5.15;;;4.20;;
2159;SDS011;1086;51.610;6.928;2022-08-19T13:58:55;5.63;;;4.33;;
2159;SDS011;1086;51.610;6.928;2022-08-19T14:01:21;5.63;;;4.65;;
2159;SDS011;1086;51.610;6.928;2022-08-19T14:03:46;7.40;;;4.35;;
2159;SDS011;1086;51.610;6.928;2022-08-19T14:06:11;6.97;;;4.30;;
2159;SDS011;1086;51.610;6.928;2022-08-19T14:08:37;5.47;;;4.43;;
2159;SDS011;1086;51.610;6.928;2022-08-19T14:11:04;6.07;;;4.97;;
2159;SDS011;1086;51.610;6.928;2022-08-19T14:13:29;6.90;;;5.20;;
2159;SDS011;1086;51.610;6.928;2022-08-19T14:15:55;7.85;;;5.70;;
2159;SDS011;1086;51.610;6.928;2022-08-19T14:18:21;9.93;;;7.13;;
2159;SDS011;1086;51.610;6.928;2022-08-19T14:20:46;10.75;;;6.97;;
2159;SDS011;1086;51.610;6.928;2022-08-19T14:23:11;8.37;;;6.17;;
2159;SDS011;1086;51.610;6.928;2022-08-19T14:25:38;9.52;;;6.40;;
2159;SDS011;1086;51.610;6.928;2022-08-19T14:28:04;9.95;;;7.35;;
2159;SDS011;1086;51.610;6.928;2022-08-19T14:30:30;11.83;;;7.80;;
2159;SDS011;1086;51.610;6.928;2022-08-19T14:32:57;10.95;;;7.43;;
2159;SDS011;1086;51.610;6.928;2022-08-19T14:35:23;13.23;;;7.68;;
2159;SDS011;1086;51.610;6.928;2022-08-19T14:37:49;10.48;;;7.28;;
2159;SDS011;1086;51.610;6.928;2022-08-19T14:40:15;9.82;;;7.20;;
2159;SDS011;1086;51.610;6.928;2022-08-19T14:42:41;8.85;;;6.95;;
2159;SDS011;1086;51.610;6.928;2022-08-19T14:45:07;12.20;;;7.00;;
2159;SDS011;1086;51.610;6.928;2022-08-19T14:47:32;9.70;;;6.88;;
2159;SDS011;1086;51.610;6.928;2022-08-19T14:49:58;8.43;;;5.70;;
2159;SDS011;1086;51.610;6.928;2022-08-19T14:52:23;10.33;;;6.60;;
2159;SDS011;1086;51.610;6.928;2022-08-19T14:54:48;11.00;;;6.30;;
2159;SDS011;1086;51.610;6.928;2022-08-19T14:57:14;10.97;;;6.97;;
2159;SDS011;1086;51.610;6.928;2022-08-19T14:59:41;8.65;;;6.10;;
2159;SDS011;1086;51.610;6.928;2022-08-19T15:02:06;8.82;;;6.10;;
2159;SDS011;1086;51.610;6.928;2022-08-19T15:04:31;7.53;;;5.47;;
2159;SDS011;1086;51.610;6.928;2022-08-19T15:06:57;9.07;;;6.13;;
2159;SDS011;1086;51.610;6.928;2022-08-19T15:09:22;11.17;;;6.23;;
2159;SDS011;1086;51.610;6.928;2022-08-19T15:11:47;8.33;;;5.63;;
2159;SDS011;1086;51.610;6.928;2022-08-19T15:14:14;9.52;;;5.72;;